sensor_id;sensor_type;location;lat;lon;timestamp;pressure;altitude;pressure_sealevel;temperature;humidity
44127;BME280;29786;50.798;7.302;2023-05-25T00:03:34;100000;;;8.64;100
44127;BME280;29786;50.798;7.302;2023-05-25T00:14:41;100010;;;8.5;100
44127;BME280;29786;50.798;7.302;2023-05-25T00:19:37;100000;;;8.6;100
44127;BME280;29786;50.798;7.302;2023-05-25T00:24:34;100010;;;8.38;100
44127;BME280;29786;50.798;7.302;2023-05-25T00:29:30;100010;;;8.14;100
44127;BME280;29786;50.798;7.302;2023-05-25T00:35:41;100010;;;8.03;100
44127;BME280;29786;50.798;7.302;2023-05-25T00:40:38;100010;;;8.05;100
44127;BME280;29786;50.798;7.302;2023-05-25T00:45:34;100010;;;8.12;100
44127;BME280;29786;50.798;7.302;2023-05-25T00:50:39;100010;;;8.07;100
44127;BME280;29786;50.798;7.302;2023-05-25T00:57:14;100010;;;8.2;100
44127;BME280;29786;50.798;7.302;2023-05-25T01:01:38;100010;;;8.1;100
44127;BME280;29786;50.798;7.302;2023-05-25T01:06:35;100010;;;7.9;100
44127;BME280;29786;50.798;7.302;2023-05-25T01:11:32;100010;;;7.8;100
44127;BME280;29786;50.798;7.302;2023-05-25T01:17:42;100000;;;7.81;100
44127;BME280;29786;50.798;7.302;2023-05-25T01:22:56;100010;;;7.77;100
44127;BME280;29786;50.798;7.302;2023-05-25T01:27:37;100010;;;7.59;100
44127;BME280;29786;50.798;7.302;2023-05-25T01:38:42;100010;;;7.49;100
44127;BME280;29786;50.798;7.302;2023-05-25T01:43:38;100020;;;7.45;100
44127;BME280;29786;50.798;7.302;2023-05-25T01:48:36;100020;;;7.05;100
44127;BME280;29786;50.798;7.302;2023-05-25T01:53:34;100020;;;6.91;100
44127;BME280;29786;50.798;7.302;2023-05-25T01:59:43;100020;;;6.73;100
44127;BME280;29786;50.798;7.302;2023-05-25T02:04:39;100020;;;6.62;100
44127;BME280;29786;50.798;7.302;2023-05-25T02:09:35;100010;;;6.72;100
44127;BME280;29786;50.798;7.302;2023-05-25T02:14:32;100010;;;6.72;100
44127;BME280;29786;50.798;7.302;2023-05-25T02:20:43;100010;;;6.54;100
44127;BME280;29786;50.798;7.302;2023-05-25T02:25:39;100010;;;6.65;100
44127;BME280;29786;50.798;7.302;2023-05-25T02:30:36;100000;;;6.81;100
44127;BME280;29786;50.798;7.302;2023-05-25T02:35:32;100000;;;6.75;100
44127;BME280;29786;50.798;7.302;2023-05-25T02:41:43;100010;;;6.86;100
44127;BME280;29786;50.798;7.302;2023-05-25T02:46:39;100010;;;6.85;100
44127;BME280;29786;50.798;7.302;2023-05-25T02:51:36;100010;;;6.78;100
44127;BME280;29786;50.798;7.302;2023-05-25T02:56:32;100010;;;6.95;100
44127;BME280;29786;50.798;7.302;2023-05-25T03:02:43;100010;;;6.76;100
44127;BME280;29786;50.798;7.302;2023-05-25T03:07:40;100010;;;6.78;100
44127;BME280;29786;50.798;7.302;2023-05-25T03:12:36;100000;;;6.63;100
44127;BME280;29786;50.798;7.302;2023-05-25T03:17:32;100010;;;6.91;100
44127;BME280;29786;50.798;7.302;2023-05-25T03:22:29;100020;;;6.75;100
44127;BME280;29786;50.798;7.302;2023-05-25T03:28:40;100020;;;6.81;100
44127;BME280;29786;50.798;7.302;2023-05-25T03:33:36;100000;;;6.81;100
44127;BME280;29786;50.798;7.302;2023-05-25T03:38:33;100030;;;7.01;100
44127;BME280;29786;50.798;7.302;2023-05-25T03:43:29;100040;;;7.07;100
44127;BME280;29786;50.798;7.302;2023-05-25T03:49:40;100040;;;7.07;100
44127;BME280;29786;50.798;7.302;2023-05-25T03:54:36;100020;;;6.86;100
44127;BME280;29786;50.798;7.302;2023-05-25T03:59:33;100050;;;6.94;100
44127;BME280;29786;50.798;7.302;2023-05-25T04:05:44;100070;;;7.2;100
44127;BME280;29786;50.798;7.302;2023-05-25T04:10:41;100070;;;7.04;100
44127;BME280;29786;50.798;7.302;2023-05-25T04:15:37;100070;;;7.06;100
44127;BME280;29786;50.798;7.302;2023-05-25T04:20:34;100070;;;6.99;100
44127;BME280;29786;50.798;7.302;2023-05-25T04:25:31;100080;;;7.11;100
44127;BME280;29786;50.798;7.302;2023-05-25T04:31:40;100070;;;7.27;100
44127;BME280;29786;50.798;7.302;2023-05-25T04:36:37;100080;;;7.5;100
44127;BME280;29786;50.798;7.302;2023-05-25T04:41:34;100090;;;7.65;100
44127;BME280;29786;50.798;7.302;2023-05-25T04:46:30;100090;;;7.66;100
44127;BME280;29786;50.798;7.302;2023-05-25T04:52:41;100090;;;7.88;100
44127;BME280;29786;50.798;7.302;2023-05-25T04:57:37;100090;;;8.38;100
44127;BME280;29786;50.798;7.302;2023-05-25T05:02:34;100090;;;8.56;100
44127;BME280;29786;50.798;7.302;2023-05-25T05:07:30;100090;;;8.68;100
44127;BME280;29786;50.798;7.302;2023-05-25T05:13:41;100110;;;9.02;100
44127;BME280;29786;50.798;7.302;2023-05-25T05:18:38;100130;;;9.16;100
44127;BME280;29786;50.798;7.302;2023-05-25T05:23:34;100140;;;9.17;100
44127;BME280;29786;50.798;7.302;2023-05-25T05:28:31;100160;;;9.55;100
44127;BME280;29786;50.798;7.302;2023-05-25T05:34:41;100160;;;8.52;100
44127;BME280;29786;50.798;7.302;2023-05-25T05:39:38;100160;;;8.64;100
44127;BME280;29786;50.798;7.302;2023-05-25T05:44:34;100150;;;9.22;100
44127;BME280;29786;50.798;7.302;2023-05-25T05:49:31;100150;;;9.84;100
44127;BME280;29786;50.798;7.302;2023-05-25T05:55:42;100150;;;10.32;100
44127;BME280;29786;50.798;7.302;2023-05-25T06:00:38;100160;;;10.71;100
44127;BME280;29786;50.798;7.302;2023-05-25T06:05:35;100160;;;11.01;100
44127;BME280;29786;50.798;7.302;2023-05-25T06:16:42;100160;;;11.37;100
44127;BME280;29786;50.798;7.302;2023-05-25T06:21:38;100160;;;11.78;100
44127;BME280;29786;50.798;7.302;2023-05-25T06:26:35;100170;;;11.79;100
44127;BME280;29786;50.798;7.302;2023-05-25T06:31:31;100170;;;12.15;100
44127;BME280;29786;50.798;7.302;2023-05-25T06:37:42;100180;;;12.52;100
44127;BME280;29786;50.798;7.302;2023-05-25T06:42:39;100180;;;12.64;100
44127;BME280;29786;50.798;7.302;2023-05-25T06:47:35;100190;;;12.67;100
44127;BME280;29786;50.798;7.302;2023-05-25T06:52:32;100190;;;13.04;100
44127;BME280;29786;50.798;7.302;2023-05-25T06:58:42;100190;;;12.8;100
44127;BME280;29786;50.798;7.302;2023-05-25T07:03:39;100190;;;12.75;100
44127;BME280;29786;50.798;7.302;2023-05-25T07:08:35;100190;;;13.37;100
44127;BME280;29786;50.798;7.302;2023-05-25T07:13:32;100200;;;13.42;100
44127;BME280;29786;50.798;7.302;2023-05-25T07:19:43;100200;;;13.3;100
44127;BME280;29786;50.798;7.302;2023-05-25T07:24:39;100210;;;13.04;100
44127;BME280;29786;50.798;7.302;2023-05-25T07:29:36;100200;;;13.63;100
44127;BME280;29786;50.798;7.302;2023-05-25T07:34:33;100200;;;13.77;100
44127;BME280;29786;50.798;7.302;2023-05-25T07:40:43;100200;;;14.11;100
44127;BME280;29786;50.798;7.302;2023-05-25T07:45:39;100190;;;14.03;100
44127;BME280;29786;50.798;7.302;2023-05-25T07:50:36;100190;;;14.41;100
44127;BME280;29786;50.798;7.302;2023-05-25T07:55:32;100200;;;14.41;100
44127;BME280;29786;50.798;7.302;2023-05-25T08:00:29;100200;;;14.99;99.64
44127;BME280;29786;50.798;7.302;2023-05-25T08:06:40;100200;;;15.92;92.68
44127;BME280;29786;50.798;7.302;2023-05-25T08:11:36;100180;;;14.91;98.04
44127;BME280;29786;50.798;7.302;2023-05-25T08:16:33;100200;;;15.7;93.5
44127;BME280;29786;50.798;7.302;2023-05-25T08:21:29;100200;;;15.64;85.88
44127;BME280;29786;50.798;7.302;2023-05-25T08:27:40;100190;;;14.46;100
44127;BME280;29786;50.798;7.302;2023-05-25T08:32:37;100170;;;14.85;97.5
44127;BME280;29786;50.798;7.302;2023-05-25T08:37:33;100180;;;17;81.5
44127;BME280;29786;50.798;7.302;2023-05-25T08:42:30;100190;;;18.48;67.91
44127;BME280;29786;50.798;7.302;2023-05-25T08:48:40;100190;;;17.53;71.2
44127;BME280;29786;50.798;7.302;2023-05-25T08:53:38;100190;;;17.39;71.53
44127;BME280;29786;50.798;7.302;2023-05-25T08:58:34;100180;;;16.35;81.36
44127;BME280;29786;50.798;7.302;2023-05-25T09:03:30;100190;;;16.14;88.59
44127;BME280;29786;50.798;7.302;2023-05-25T09:09:40;100180;;;15.98;85.24
44127;BME280;29786;50.798;7.302;2023-05-25T09:14:37;100180;;;16.65;78.23
44127;BME280;29786;50.798;7.302;2023-05-25T09:19:34;100180;;;17.32;68.17
44127;BME280;29786;50.798;7.302;2023-05-25T09:24:30;100180;;;18.35;68.51
44127;BME280;29786;50.798;7.302;2023-05-25T09:30:41;100180;;;19.39;59.14
44127;BME280;29786;50.798;7.302;2023-05-25T09:35:38;100190;;;19.84;55.62
44127;BME280;29786;50.798;7.302;2023-05-25T09:40:34;100180;;;20.32;55.34
44127;BME280;29786;50.798;7.302;2023-05-25T09:45:30;100180;;;18.7;59.31
44127;BME280;29786;50.798;7.302;2023-05-25T09:51:41;100180;;;17.59;61.17
44127;BME280;29786;50.798;7.302;2023-05-25T09:56:38;100180;;;17.59;64.78
44127;BME280;29786;50.798;7.302;2023-05-25T10:01:34;100180;;;19.11;58.43
44127;BME280;29786;50.798;7.302;2023-05-25T10:06:31;100170;;;20.76;52.38
44127;BME280;29786;50.798;7.302;2023-05-25T10:12:42;100170;;;19.75;53.9
44127;BME280;29786;50.798;7.302;2023-05-25T10:17:42;100170;;;19.29;55.82
44127;BME280;29786;50.798;7.302;2023-05-25T10:22:35;100180;;;19.11;57.73
44127;BME280;29786;50.798;7.302;2023-05-25T10:27:33;100180;;;18.61;58.12
44127;BME280;29786;50.798;7.302;2023-05-25T10:33:42;100180;;;18.81;58.18
44127;BME280;29786;50.798;7.302;2023-05-25T10:38:38;100160;;;18.43;55.92
44127;BME280;29786;50.798;7.302;2023-05-25T10:43:35;100160;;;19.45;52.2
44127;BME280;29786;50.798;7.302;2023-05-25T10:54:42;100170;;;20.11;51.75
44127;BME280;29786;50.798;7.302;2023-05-25T10:59:40;100160;;;20.07;52.99
44127;BME280;29786;50.798;7.302;2023-05-25T11:04:35;100170;;;19.98;52.6
44127;BME280;29786;50.798;7.302;2023-05-25T11:09:32;100170;;;19;55.62
44127;BME280;29786;50.798;7.302;2023-05-25T11:15:42;100170;;;19.91;53.67
44127;BME280;29786;50.798;7.302;2023-05-25T11:20:39;100160;;;19.5;55.29
44127;BME280;29786;50.798;7.302;2023-05-25T11:25:37;100160;;;19.04;55.23
44127;BME280;29786;50.798;7.302;2023-05-25T11:30:32;100150;;;20.2;52.83
44127;BME280;29786;50.798;7.302;2023-05-25T11:34:14;100140;;;20.6;50.74
44127;BME280;29786;50.798;7.302;2023-05-25T11:36:42;100140;;;20.9;51.96
44127;BME280;29786;50.798;7.302;2023-05-25T11:41:39;100140;;;21.06;51.92
44127;BME280;29786;50.798;7.302;2023-05-25T11:46:35;100130;;;20.76;50.56
44127;BME280;29786;50.798;7.302;2023-05-25T11:51:32;100130;;;20.67;53.52
44127;BME280;29786;50.798;7.302;2023-05-25T11:57:43;100130;;;21.82;53.15
44127;BME280;29786;50.798;7.302;2023-05-25T12:02:39;100130;;;22.75;51.46
44127;BME280;29786;50.798;7.302;2023-05-25T12:07:40;100130;;;22.52;47.84
44127;BME280;29786;50.798;7.302;2023-05-25T12:12:48;100130;;;21.97;49.23
44127;BME280;29786;50.798;7.302;2023-05-25T12:18:43;100120;;;22.84;48.17
44127;BME280;29786;50.798;7.302;2023-05-25T12:23:39;100130;;;22.71;49.51
44127;BME280;29786;50.798;7.302;2023-05-25T12:28:36;100130;;;21.77;50.49
44127;BME280;29786;50.798;7.302;2023-05-25T12:33:32;100130;;;20.79;52.81
44127;BME280;29786;50.798;7.302;2023-05-25T12:38:29;100130;;;20.55;52.59
44127;BME280;29786;50.798;7.302;2023-05-25T12:44:40;100120;;;23.78;48.73
44127;BME280;29786;50.798;7.302;2023-05-25T12:49:36;100110;;;22.91;47.34
44127;BME280;29786;50.798;7.302;2023-05-25T12:54:33;100120;;;24.53;46.08
44127;BME280;29786;50.798;7.302;2023-05-25T13:00:43;100130;;;23.11;46.45
44127;BME280;29786;50.798;7.302;2023-05-25T13:05:40;100130;;;22;48.47
44127;BME280;29786;50.798;7.302;2023-05-25T13:10:37;100110;;;21.82;48.77
44127;BME280;29786;50.798;7.302;2023-05-25T13:15:33;100120;;;23.96;45.81
44127;BME280;29786;50.798;7.302;2023-05-25T13:20:30;100120;;;23.4;46.11
44127;BME280;29786;50.798;7.302;2023-05-25T13:26:41;100120;;;22.42;47.16
44127;BME280;29786;50.798;7.302;2023-05-25T13:31:37;100120;;;21.43;49.05
44127;BME280;29786;50.798;7.302;2023-05-25T13:36:33;100120;;;21.77;48.06
44127;BME280;29786;50.798;7.302;2023-05-25T13:41:30;100110;;;23.7;45.81
44127;BME280;29786;50.798;7.302;2023-05-25T13:47:41;100120;;;24.39;42.76
44127;BME280;29786;50.798;7.302;2023-05-25T13:52:37;100110;;;25.08;42.79
44127;BME280;29786;50.798;7.302;2023-05-25T13:57:34;100100;;;26.9;38.99
44127;BME280;29786;50.798;7.302;2023-05-25T14:02:30;100100;;;26.12;40.89
44127;BME280;29786;50.798;7.302;2023-05-25T14:08:41;100110;;;23.73;42.04
44127;BME280;29786;50.798;7.302;2023-05-25T14:13:37;100100;;;26.93;37.92
44127;BME280;29786;50.798;7.302;2023-05-25T14:18:34;100100;;;26.13;38.23
44127;BME280;29786;50.798;7.302;2023-05-25T14:23:30;100090;;;26.22;37.84
44127;BME280;29786;50.798;7.302;2023-05-25T14:29:41;100100;;;26.08;37.4
44127;BME280;29786;50.798;7.302;2023-05-25T14:34:38;100100;;;26.22;37.45
44127;BME280;29786;50.798;7.302;2023-05-25T14:39:34;100100;;;25.1;38.29
44127;BME280;29786;50.798;7.302;2023-05-25T14:44:31;100100;;;26.34;37.25
44127;BME280;29786;50.798;7.302;2023-05-25T14:50:41;100090;;;26.6;36.11
44127;BME280;29786;50.798;7.302;2023-05-25T14:55:38;100100;;;26.1;38.1
44127;BME280;29786;50.798;7.302;2023-05-25T15:00:35;100110;;;24.85;38.76
44127;BME280;29786;50.798;7.302;2023-05-25T15:05:31;100100;;;26.18;36.57
44127;BME280;29786;50.798;7.302;2023-05-25T15:11:42;100100;;;26.51;36.07
44127;BME280;29786;50.798;7.302;2023-05-25T15:16:38;100100;;;27.99;33.56
44127;BME280;29786;50.798;7.302;2023-05-25T15:21:35;100100;;;24.85;37.94
44127;BME280;29786;50.798;7.302;2023-05-25T15:32:42;100090;;;27.94;34.78
44127;BME280;29786;50.798;7.302;2023-05-25T15:37:38;100080;;;30.58;31.39
44127;BME280;29786;50.798;7.302;2023-05-25T15:42:35;100080;;;28.91;32.22
44127;BME280;29786;50.798;7.302;2023-05-25T15:47:31;100080;;;26.29;36.19
44127;BME280;29786;50.798;7.302;2023-05-25T15:51:14;100070;;;26.09;36.04
44127;BME280;29786;50.798;7.302;2023-05-25T15:53:42;100070;;;26.87;35.31
44127;BME280;29786;50.798;7.302;2023-05-25T15:58:39;100060;;;25.8;36.2
44127;BME280;29786;50.798;7.302;2023-05-25T16:03:35;100070;;;27.31;35.39
44127;BME280;29786;50.798;7.302;2023-05-25T16:08:32;100070;;;26.49;34.76
44127;BME280;29786;50.798;7.302;2023-05-25T16:14:42;100070;;;27.11;34.42
44127;BME280;29786;50.798;7.302;2023-05-25T16:19:39;100070;;;26.14;36.16
44127;BME280;29786;50.798;7.302;2023-05-25T16:24:35;100070;;;26.88;36.43
44127;BME280;29786;50.798;7.302;2023-05-25T16:29:32;100070;;;26.05;37.2
44127;BME280;29786;50.798;7.302;2023-05-25T16:35:43;100070;;;26.57;37.23
44127;BME280;29786;50.798;7.302;2023-05-25T16:40:39;100070;;;23.5;41.09
44127;BME280;29786;50.798;7.302;2023-05-25T16:45:36;100070;;;21.85;45.22
44127;BME280;29786;50.798;7.302;2023-05-25T16:50:32;100070;;;23.6;42.29
44127;BME280;29786;50.798;7.302;2023-05-25T16:56:43;100070;;;25.23;39.95
44127;BME280;29786;50.798;7.302;2023-05-25T17:01:40;100070;;;24.14;41.09
44127;BME280;29786;50.798;7.302;2023-05-25T17:06:36;100070;;;24.26;41.13
44127;BME280;29786;50.798;7.302;2023-05-25T17:11:33;100080;;;24.11;41.78
44127;BME280;29786;50.798;7.302;2023-05-25T17:17:43;100080;;;24.45;41.09
44127;BME280;29786;50.798;7.302;2023-05-25T17:22:40;100080;;;22.77;43.81
44127;BME280;29786;50.798;7.302;2023-05-25T17:27:36;100060;;;23.92;42.03
44127;BME280;29786;50.798;7.302;2023-05-25T17:32:33;100070;;;24.93;40.65
44127;BME280;29786;50.798;7.302;2023-05-25T17:37:30;100080;;;20.53;48.05
44127;BME280;29786;50.798;7.302;2023-05-25T17:43:40;100090;;;18.51;53.9
44127;BME280;29786;50.798;7.302;2023-05-25T17:48:37;100080;;;18.85;53.72
44127;BME280;29786;50.798;7.302;2023-05-25T17:53:33;100100;;;18.14;57.08
44127;BME280;29786;50.798;7.302;2023-05-25T17:58:30;100100;;;17.32;62.35
44127;BME280;29786;50.798;7.302;2023-05-25T18:04:40;100100;;;16.94;66
44127;BME280;29786;50.798;7.302;2023-05-25T18:09:37;100080;;;17.28;65.82
44127;BME280;29786;50.798;7.302;2023-05-25T18:14:34;100100;;;17.27;66.15
44127;BME280;29786;50.798;7.302;2023-05-25T18:19:30;100100;;;16.65;69.92
44127;BME280;29786;50.798;7.302;2023-05-25T18:25:40;100120;;;16.31;72.9
44127;BME280;29786;50.798;7.302;2023-05-25T18:30:37;100120;;;16.58;75.91
44127;BME280;29786;50.798;7.302;2023-05-25T18:35:34;100120;;;16.1;76.24
44127;BME280;29786;50.798;7.302;2023-05-25T18:40:30;100120;;;15.96;78.3
44127;BME280;29786;50.798;7.302;2023-05-25T18:46:41;100130;;;15.88;80.71
44127;BME280;29786;50.798;7.302;2023-05-25T18:51:37;100130;;;15.7;82.52
44127;BME280;29786;50.798;7.302;2023-05-25T18:56:34;100130;;;15.56;76.3
44127;BME280;29786;50.798;7.302;2023-05-25T19:01:30;100130;;;15.08;81.01
44127;BME280;29786;50.798;7.302;2023-05-25T19:07:41;100140;;;15.04;79.73
44127;BME280;29786;50.798;7.302;2023-05-25T19:12:38;100140;;;14.74;83.63
44127;BME280;29786;50.798;7.302;2023-05-25T19:17:34;100140;;;14.47;84.21
44127;BME280;29786;50.798;7.302;2023-05-25T19:22:31;100150;;;14.22;88.11
44127;BME280;29786;50.798;7.302;2023-05-25T19:28:41;100150;;;13.91;93.75
44127;BME280;29786;50.798;7.302;2023-05-25T19:33:38;100160;;;13.82;94.91
44127;BME280;29786;50.798;7.302;2023-05-25T19:38:34;100170;;;14.03;95.62
44127;BME280;29786;50.798;7.302;2023-05-25T19:43:31;100170;;;13.99;92.51
44127;BME280;29786;50.798;7.302;2023-05-25T19:49:42;100170;;;13.9;94.85
44127;BME280;29786;50.798;7.302;2023-05-25T19:54:38;100180;;;13.54;95.95
44127;BME280;29786;50.798;7.302;2023-05-25T19:58:20;100180;;;13.51;98.94
44127;BME280;29786;50.798;7.302;2023-05-25T19:59:35;100180;;;13.51;98.09
44127;BME280;29786;50.798;7.302;2023-05-25T20:04:31;100180;;;13.44;98.48
44127;BME280;29786;50.798;7.302;2023-05-25T20:10:42;100180;;;13.22;100
44127;BME280;29786;50.798;7.302;2023-05-25T20:15:38;100180;;;13.27;100
44127;BME280;29786;50.798;7.302;2023-05-25T20:20:35;100200;;;13.26;100
44127;BME280;29786;50.798;7.302;2023-05-25T20:25:31;100190;;;13.16;100
44127;BME280;29786;50.798;7.302;2023-05-25T20:31:42;100190;;;13.12;100
44127;BME280;29786;50.798;7.302;2023-05-25T20:36:39;100200;;;12.88;100
44127;BME280;29786;50.798;7.302;2023-05-25T20:41:35;100200;;;12.73;100
44127;BME280;29786;50.798;7.302;2023-05-25T20:46:32;100200;;;12.75;100
44127;BME280;29786;50.798;7.302;2023-05-25T20:52:42;100220;;;12.76;100
44127;BME280;29786;50.798;7.302;2023-05-25T20:57:39;100210;;;12.98;100
44127;BME280;29786;50.798;7.302;2023-05-25T21:02:35;100210;;;12.7;100
44127;BME280;29786;50.798;7.302;2023-05-25T21:07:32;100210;;;12.59;100
44127;BME280;29786;50.798;7.302;2023-05-25T21:13:43;100210;;;12.62;100
44127;BME280;29786;50.798;7.302;2023-05-25T21:18:39;100220;;;12.48;100
44127;BME280;29786;50.798;7.302;2023-05-25T21:23:36;100230;;;12.38;100
44127;BME280;29786;50.798;7.302;2023-05-25T21:28:32;100230;;;12.23;100
44127;BME280;29786;50.798;7.302;2023-05-25T21:34:43;100220;;;11.9;100
44127;BME280;29786;50.798;7.302;2023-05-25T21:39:39;100220;;;11.82;100
44127;BME280;29786;50.798;7.302;2023-05-25T21:44:36;100230;;;11.84;100
44127;BME280;29786;50.798;7.302;2023-05-25T21:49:33;100230;;;11.81;100
44127;BME280;29786;50.798;7.302;2023-05-25T21:55:44;100240;;;11.79;100
44127;BME280;29786;50.798;7.302;2023-05-25T22:00:40;100230;;;12.04;100
44127;BME280;29786;50.798;7.302;2023-05-25T22:05:36;100210;;;12;100
44127;BME280;29786;50.798;7.302;2023-05-25T22:10:33;100230;;;11.99;100
44127;BME280;29786;50.798;7.302;2023-05-25T22:15:29;100240;;;11.7;100
44127;BME280;29786;50.798;7.302;2023-05-25T22:21:40;100250;;;11.43;100
44127;BME280;29786;50.798;7.302;2023-05-25T22:26:37;100230;;;11.56;100
44127;BME280;29786;50.798;7.302;2023-05-25T22:31:33;100250;;;12.04;100
44127;BME280;29786;50.798;7.302;2023-05-25T22:37:44;100250;;;11.51;100
44127;BME280;29786;50.798;7.302;2023-05-25T22:42:40;100250;;;11.13;100
44127;BME280;29786;50.798;7.302;2023-05-25T22:47:37;100230;;;11.27;100
44127;BME280;29786;50.798;7.302;2023-05-25T22:52:33;100250;;;10.96;100
44127;BME280;29786;50.798;7.302;2023-05-25T22:57:30;100260;;;10.79;100
44127;BME280;29786;50.798;7.302;2023-05-25T23:03:41;100260;;;10.78;100
44127;BME280;29786;50.798;7.302;2023-05-25T23:13:34;100250;;;10.64;100
44127;BME280;29786;50.798;7.302;2023-05-25T23:18:30;100250;;;10.52;100
44127;BME280;29786;50.798;7.302;2023-05-25T23:24:41;100260;;;10.61;100
44127;BME280;29786;50.798;7.302;2023-05-25T23:29:37;100250;;;10.72;100
44127;BME280;29786;50.798;7.302;2023-05-25T23:34:34;100250;;;10.48;100
44127;BME280;29786;50.798;7.302;2023-05-25T23:39:30;100250;;;10.55;100
44127;BME280;29786;50.798;7.302;2023-05-25T23:45:41;100250;;;10.33;100
44127;BME280;29786;50.798;7.302;2023-05-25T23:50:38;100250;;;10.24;100
44127;BME280;29786;50.798;7.302;2023-05-25T23:55:34;100250;;;10.03;100
